Latest Weather Observations for Moorabbin Airport

IDV60801

Issued at 7:31 pm EST Saturday 1 August 2015 (issued every 30 minutes, with the page automatically refreshed every 10 minutes)

About weather observations | Map of weather stations | Latest weather observations for VIC | Other Formats
Station Details ID: 086077 Name: MOORABBIN AIRPORT Lat: -37.98 Lon: 145.10 Height: 12.1 m
Data from the previous 72 hours. | See also: Recent months at Moorabbin Airport
Date/Time
EST
Temp
°C
App
Temp
°C
Dew
Point
Rel
Hum
%
Delta-T
°C
Wind Press
QNH
hPa
Press
MSL
hPa
Rain
since 9 am
mm
Dir
 
Spd
km/h
Gust
km/h
Spd
kts
Gust
kts
01/07:30pm 8.3 5.5 3.4 71 2.1 NNW 7 9 4 5 1016.0 1016.0 0.0
01/07:00pm 7.9 5.3 3.2 72 2.0 NNW 6 7 3 4 1016.0 1016.0 0.0
01/06:30pm 7.8 4.7 3.7 75 1.8 N 9 11 5 6 1015.6 1015.6 0.0
01/06:00pm 8.9 6.4 3.5 69 2.3 NW 6 7 3 4 1015.5 1015.5 0.0
01/05:30pm 9.5 6.9 3.0 64 2.8 NW 6 7 3 4 1015.2 1015.2 0.0
01/05:00pm 10.0 6.8 2.8 61 3.1 WNW 9 13 5 7 1014.8 1014.8 0.0
01/04:30pm 10.3 7.4 2.7 59 3.3 WNW 7 11 4 6 1014.4 1014.4 0.0
01/04:00pm 10.5 6.9 2.8 59 3.3 WNW 11 15 6 8 1014.7 1014.7 0.0
01/03:30pm 10.8 7.6 3.1 59 3.3 WSW 9 11 5 6 1014.5 1014.5 0.0
01/03:00pm 10.7 7.2 3.3 60 3.2 WNW 11 15 6 8 1014.5 1014.5 0.0
01/02:30pm 10.8 7.9 4.5 65 2.8 WSW 9 13 5 7 1014.1 1014.1 0.0
01/02:00pm 10.8 7.1 4.7 66 2.8 WSW 13 15 7 8 1014.2 1014.2 0.0
01/01:30pm 10.7 7.1 5.0 68 2.6 W 13 17 7 9 1014.1 1014.1 0.0
01/01:00pm 10.6 7.1 5.4 70 2.4 W 13 19 7 10 1014.1 1014.1 0.0
01/12:30pm 10.7 6.9 5.9 72 2.2 WNW 15 20 8 11 1014.3 1014.3 0.0
01/12:00pm 10.6 6.9 6.2 74 2.0 W 15 22 8 12 1014.5 1014.5 0.0
01/11:30am 10.4 6.6 6.0 74 2.0 W 15 20 8 11 1014.5 1014.5 0.0
01/11:00am 10.4 6.5 7.3 81 1.5 WNW 17 26 9 14 1014.6 1014.6 0.0
01/10:30am 9.9 7.2 7.2 83 1.3 W 11 15 6 8 1014.5 1014.5 0.0
01/10:00am 10.0 6.8 6.9 81 1.5 WSW 13 24 7 13 1013.7 1013.7 0.0
01/09:30am 9.5 5.7 7.4 87 1.0 SW 17 26 9 14 1013.1 1013.1 0.0
01/09:19am 9.4 5.1 7.8 90 0.8 SW 20 30 11 16 1013.0 1013.0 0.0
01/09:00am 9.6 5.3 8.0 90 0.8 SW 20 32 11 17 1012.4 1012.4 1.6
01/08:55am 9.7 4.6 7.8 88 0.9 WSW 24 35 13 19 1012.3 1012.3 1.6
01/08:30am 10.2 6.9 8.0 86 1.1 NW 15 20 8 11 1011.5 1011.5 1.4
01/08:00am 9.9 5.5 7.5 85 1.1 NNW 20 32 11 17 1010.6 1010.6 1.4
01/07:30am 10.3 3.9 7.0 80 1.6 NNW 30 48 16 26 1009.8 1009.8 1.0
01/07:00am 10.9 4.4 6.5 74 2.1 NNW 30 41 16 22 1008.8 1008.8 0.2
01/06:30am 11.3 3.8 6.4 72 2.3 NNW 35 54 19 29 1008.3 1008.3 0.2
01/06:00am 12.0 4.4 5.6 65 3.0 NNW 35 56 19 30 1008.0 1008.0 0.0
01/05:30am 12.3 3.9 5.7 64 3.1 NNW 39 61 21 33 1007.7 1007.7 0.0
01/05:01am 12.5 5.0 6.1 65 3.0 N 35 54 19 29 1007.7 1007.7 0.0
01/05:00am 12.4 4.8 6.0 65 3.0 N 35 50 19 27 1007.7 1007.7 0.0
01/04:30am 12.7 3.6 6.1 64 3.1 N 43 61 23 33 1007.7 1007.7 0.0
01/04:20am 12.8 4.8 5.9 63 3.2 N 37 56 20 30 1007.8 1007.8 0.0
01/04:00am 12.6 5.4 5.8 63 3.2 N 33 50 18 27 1008.3 1008.3 0.0
01/03:30am 12.1 3.2 5.0 62 3.3 N 41 56 22 30 1008.1 1008.1 0.0
01/03:00am 12.2 3.9 4.4 59 3.5 N 37 48 20 26 1008.6 1008.6 0.0
01/02:30am 11.9 4.3 3.9 58 3.6 N 33 48 18 26 1009.4 1009.4 0.0
01/02:00am 11.9 3.8 3.4 56 3.8 N 35 54 19 29 1009.9 1009.9 0.0
01/01:39am 11.6 3.1 3.1 56 3.7 N 37 56 20 30 1010.3 1010.3 0.0
01/01:30am 11.5 3.0 3.0 56 3.7 N 37 52 20 28 1010.5 1010.5 0.0
01/01:00am 11.3 3.7 2.9 56 3.7 N 32 50 17 27 1011.3 1011.3 0.0
01/12:30am 10.9 3.6 2.5 56 3.6 N 30 43 16 23 1011.9 1011.9 0.0
01/12:00am 10.7 2.4 2.3 56 3.6 N 35 57 19 31 1012.9 1012.9 0.0
 
Date/Time
EST
Temp
°C
App
Temp
°C
Dew
Point
Rel
Hum
%
Delta-T
°C
Wind Press
QNH
hPa
Press
MSL
hPa
Rain
since 9 am
mm
Dir
 
Spd
km/h
Gust
km/h
Spd
kts
Gust
kts
31/11:34pm 10.3 1.7 2.7 59 3.3 N 37 56 20 30 1013.2 1013.2 0.0
31/11:30pm 10.4 1.4 2.5 58 3.4 N 39 56 21 30 1013.3 1013.3 0.0
31/11:03pm 10.4 2.2 2.7 59 3.3 N 35 54 19 29 1014.2 1014.2 0.0
31/11:00pm 10.3 2.5 2.9 60 3.2 N 33 46 18 25 1014.0 1014.0 0.0
31/10:49pm 10.3 2.5 2.9 60 3.2 NNW 33 52 18 28 1014.6 1014.6 0.0
31/10:30pm 10.5 1.9 2.8 59 3.3 NNW 37 52 20 28 1014.4 1014.4 0.0
31/10:18pm 10.5 2.9 2.8 59 3.3 NNW 32 54 17 29 1014.3 1014.3 0.0
31/10:00pm 10.2 3.8 3.0 61 3.1 NNW 26 39 14 21 1014.5 1014.5 0.0
31/09:30pm 10.1 5.0 3.2 62 3.0 NNW 19 33 10 18 1015.0 1015.0 0.0
31/09:00pm 9.7 4.9 2.8 62 2.9 NNW 17 20 9 11 1015.3 1015.3 0.0
31/08:30pm 9.9 3.8 2.7 61 3.1 N 24 35 13 19 1015.4 1015.4 0.0
31/08:00pm 10.2 3.3 2.8 60 3.2 N 28 37 15 20 1014.9 1014.9 0.0
31/07:30pm 10.3 4.2 2.9 60 3.2 N 24 30 13 16 1015.1 1015.1 0.0
31/07:00pm 10.5 4.5 3.3 61 3.1 N 24 33 13 18 1015.8 1015.8 0.0
31/06:30pm 10.8 5.6 3.4 60 3.2 NNW 20 33 11 18 1015.8 1015.8 0.0
31/06:00pm 11.0 5.7 3.1 58 3.4 N 20 28 11 15 1015.8 1015.8 0.0
31/05:30pm 11.3 5.3 3.1 57 3.6 N 24 33 13 18 1015.5 1015.5 0.0
31/05:00pm 12.0 5.2 3.3 55 3.8 N 28 39 15 21 1015.3 1015.3 0.0
31/04:30pm 12.2 5.0 3.2 54 4.0 N 30 39 16 21 1015.3 1015.3 0.0
31/04:00pm 12.8 6.8 3.2 52 4.3 N 24 35 13 19 1015.7 1015.7 0.0
31/03:30pm 13.1 8.0 2.9 50 4.5 NNW 19 28 10 15 1016.2 1016.2 0.0
31/03:00pm 13.0 7.7 1.7 46 4.9 N 19 30 10 16 1016.6 1016.7 0.0
31/02:30pm 12.8 8.2 1.5 46 4.8 NNW 15 30 8 16 1016.9 1017.0 0.0
31/02:00pm 12.9 9.7 3.0 51 4.4 NNW 9 17 5 9 1017.3 1017.4 0.0
31/01:30pm 12.2 8.5 2.6 52 4.2 WNW 11 20 6 11 1018.1 1018.2 0.0
31/01:00pm 12.0 8.4 2.7 53 4.0 W 11 19 6 10 1018.8 1018.9 0.0
31/12:30pm 11.9 8.0 3.4 56 3.8 NW 13 20 7 11 1019.5 1019.6 0.0
31/12:00pm 11.3 7.2 2.3 54 3.8 NW 13 20 7 11 1020.4 1020.5 0.0
31/11:30am 11.1 7.3 4.1 62 3.1 NW 13 19 7 10 1021.0 1021.1 0.0
31/11:00am 10.8 7.4 4.0 63 3.0 NW 11 17 6 9 1021.4 1021.5 0.0
31/10:30am 9.6 5.2 4.8 72 2.1 N 17 24 9 13 1021.4 1021.5 0.0
31/10:00am 9.3 5.2 4.5 72 2.1 NNW 15 22 8 12 1021.4 1021.5 0.0
31/09:30am 8.2 4.5 4.4 77 1.7 NNW 13 19 7 10 1021.1 1021.2 0.0
31/09:00am 6.9 3.3 4.9 87 0.9 N 13 17 7 9 1021.3 1021.4 3.4
31/08:30am 5.3 2.4 4.4 94 0.4 N 9 11 5 6 1021.2 1021.3 3.4
31/08:00am 3.6 0.3 2.6 93 0.4 N 9 9 5 5 1021.2 1021.3 3.4
31/07:30am 3.6 -0.1 2.6 93 0.4 N 11 13 6 7 1020.8 1020.9 3.4
31/07:00am 3.3 -0.1 1.8 90 0.6 N 9 13 5 7 1020.2 1020.3 3.4
31/06:30am 4.4 0.1 3.1 91 0.5 N 15 15 8 8 1020.0 1020.1 3.4
31/06:00am 5.6 2.9 3.9 89 0.7 NW 7 11 4 6 1019.6 1019.7 3.4
31/05:30am 5.7 2.7 4.0 89 0.7 WNW 9 11 5 6 1019.5 1019.6 3.4
31/05:00am 6.0 3.0 4.2 88 0.8 NW 9 15 5 8 1019.4 1019.5 3.4
31/04:30am 6.4 3.8 4.4 87 0.9 NW 7 11 4 6 1019.1 1019.2 3.4
31/04:00am 6.8 4.3 4.5 85 1.0 WNW 7 11 4 6 1018.8 1018.9 3.4
31/03:30am 7.6 4.0 5.1 84 1.1 W 13 17 7 9 1018.7 1018.8 3.4
31/03:00am 7.4 4.1 4.7 83 1.2 WNW 11 13 6 7 1018.8 1018.9 3.4
31/02:30am 7.9 4.3 5.0 82 1.3 W 13 22 7 12 1018.9 1019.0 3.4
31/02:00am 7.8 4.6 5.1 83 1.2 WNW 11 19 6 10 1018.7 1018.8 3.4
31/01:30am 8.0 4.8 5.3 83 1.2 WNW 11 17 6 9 1018.6 1018.7 3.4
31/01:00am 8.0 4.8 5.3 83 1.2 WNW 11 20 6 11 1018.3 1018.4 3.4
31/12:30am 8.5 5.1 5.8 83 1.2 WNW 13 17 7 9 1018.2 1018.3 3.4
31/12:00am 8.8 5.0 5.7 81 1.4 WNW 15 22 8 12 1018.1 1018.2 3.4
 
Date/Time
EST
Temp
°C
App
Temp
°C
Dew
Point
Rel
Hum
%
Delta-T
°C
Wind Press
QNH
hPa
Press
MSL
hPa
Rain
since 9 am
mm
Dir
 
Spd
km/h
Gust
km/h
Spd
kts
Gust
kts
30/11:30pm 8.9 5.1 6.0 82 1.3 WNW 15 22 8 12 1018.1 1018.2 3.4
30/11:00pm 9.0 6.2 6.8 86 1.0 WNW 11 17 6 9 1017.8 1017.9 3.4
30/10:30pm 9.2 6.2 7.5 89 0.8 NW 13 19 7 10 1017.8 1017.9 3.4
30/10:00pm 9.2 6.9 7.5 89 0.8 WNW 9 13 5 7 1017.8 1017.9 3.4
30/09:49pm 9.1 6.0 7.4 89 0.8 NW 13 19 7 10 1017.6 1017.7 3.4
30/09:30pm 9.1 6.0 7.1 87 0.9 WNW 13 20 7 11 1017.7 1017.8 2.6
30/09:17pm 9.3 4.4 6.7 84 1.2 NW 22 35 12 19 1017.2 1017.3 1.0
30/09:00pm 9.7 3.9 6.4 80 1.5 NW 26 37 14 20 1016.7 1016.8 0.4
30/08:30pm 10.2 3.0 5.8 74 2.0 NNW 33 52 18 28 1015.6 1015.6 0.2
30/08:00pm 10.9 1.6 4.8 66 2.8 NNW 43 65 23 35 1014.5 1014.5 0.2
30/07:30pm 10.9 1.9 4.6 65 2.8 N 41 59 22 32 1014.2 1014.2 0.2
30/07:00pm 10.9 1.9 4.4 64 2.9 NNW 41 59 22 32 1013.7 1013.7 0.2
30/06:31pm 11.0 3.1 4.5 64 2.9 NNW 35 59 19 32 1013.0 1013.0 0.2
30/06:30pm 10.8 3.3 4.5 65 2.8 NNW 33 48 18 26 1013.1 1013.1 0.2
30/06:00pm 10.7 2.8 4.6 66 2.7 NNW 35 54 19 29 1013.3 1013.3 0.0
30/05:30pm 11.9 4.1 2.9 54 3.9 NNW 33 52 18 28 1012.7 1012.7 0.0
30/05:00pm 11.7 1.4 2.7 54 3.9 NNW 46 69 25 37 1011.2 1011.2 0.0
30/04:30pm 11.9 2.2 2.6 53 4.0 NNW 43 65 23 35 1011.7 1011.7 0.0
30/04:12pm 11.9 4.6 2.6 53 4.0 NNW 30 48 16 26 1012.3 1012.3 0.0
30/04:00pm 11.7 4.1 3.0 55 3.8 N 32 48 17 26 1012.6 1012.6 0.0
30/03:37pm 11.6 4.1 3.4 57 3.6 N 32 50 17 27 1012.7 1012.7 0.0
30/03:30pm 11.4 4.7 3.7 59 3.4 N 28 39 15 21 1013.0 1013.0 0.0
30/03:00pm 11.3 2.9 3.6 59 3.4 N 37 56 20 30 1013.8 1013.8 0.0
30/02:30pm 11.4 2.2 3.4 58 3.5 N 41 69 22 37 1013.9 1013.9 0.0
30/02:00pm 11.4 1.3 3.7 59 3.4 N 46 65 25 35 1013.9 1013.9 0.0
30/01:30pm 10.6 0.3 4.7 67 2.7 N 48 69 26 37 1014.4 1014.4 0.0
30/01:00pm 11.2 0.7 3.7 60 3.3 N 48 74 26 40 1015.3 1015.3 0.0
30/12:30pm 11.6 1.1 3.9 59 3.4 N 48 69 26 37 1016.4 1016.4 0.0
30/12:00pm 12.0 2.2 3.5 56 3.8 N 44 67 24 36 1017.0 1017.1 0.0
30/11:32am 11.4 1.9 3.7 59 3.4 N 43 61 23 33 1017.9 1018.0 0.0
30/11:30am 11.2 1.7 4.0 61 3.2 N 43 57 23 31 1018.0 1018.1 0.0
30/11:00am 11.3 0.7 3.3 58 3.5 N 48 67 26 36 1018.4 1018.5 0.0
30/10:41am 11.3 1.2 3.6 59 3.4 N 46 70 25 38 1018.4 1018.5 0.0
30/10:30am 11.7 2.2 3.7 58 3.6 N 43 59 23 32 1019.0 1019.1 0.0
30/10:19am 11.4 1.9 3.9 60 3.3 N 43 61 23 33 1019.4 1019.5 0.0
30/10:00am 10.9 1.3 3.5 60 3.2 N 43 59 23 32 1019.4 1019.5 0.0
30/09:31am 10.9 2.9 3.7 61 3.2 N 35 54 19 29 1019.6 1019.7 0.0
30/09:30am 10.8 2.8 3.8 62 3.1 N 35 46 19 25 1019.6 1019.7 0.0
30/09:00am 10.1 2.4 3.6 64 2.8 N 33 50 18 27 1020.1 1020.2 0.0
30/08:53am 10.1 2.6 3.4 63 2.9 N 32 50 17 27 1020.0 1020.1 0.0
30/08:30am 9.9 1.8 3.4 64 2.8 N 35 50 19 27 1020.1 1020.2 0.0
30/08:00am 9.6 1.8 3.1 64 2.8 N 33 46 18 25 1020.2 1020.3 0.0
30/07:30am 8.6 1.8 3.2 69 2.3 N 28 39 15 21 1020.4 1020.5 0.0
30/07:00am 8.4 1.3 3.3 70 2.2 N 30 37 16 20 1020.7 1020.8 0.0
30/06:30am 8.8 1.6 3.2 68 2.4 N 30 46 16 25 1021.1 1021.2 0.0
30/06:00am 8.7 1.6 3.3 69 2.3 N 30 44 16 24 1021.2 1021.3 0.0
30/05:30am 9.0 2.3 3.6 69 2.3 N 28 39 15 21 1021.3 1021.4 0.0
30/05:00am 9.0 1.5 3.2 67 2.5 N 32 46 17 25 1021.5 1021.6 0.0
30/04:30am 8.8 2.0 3.2 68 2.4 N 28 37 15 20 1022.0 1022.1 0.0
30/04:00am 8.6 2.2 3.2 69 2.3 N 26 35 14 19 1022.6 1022.7 0.0
30/03:30am 8.3 2.3 3.2 70 2.2 N 24 32 13 17 1022.8 1022.9 0.0
30/03:00am 7.8 2.5 2.9 71 2.1 N 20 26 11 14 1023.3 1023.4 0.0
30/02:30am 7.8 2.5 2.9 71 2.1 N 20 28 11 15 1023.8 1023.9 0.0
30/02:00am 7.9 2.8 3.0 71 2.1 N 19 26 10 14 1024.5 1024.6 0.0
30/01:30am 8.7 3.5 3.3 69 2.3 N 20 30 11 16 1024.8 1024.9 0.0
30/01:00am 8.0 3.5 4.0 76 1.7 N 17 22 9 12 1025.1 1025.2 0.0
30/12:30am 8.3 3.7 3.9 74 1.9 N 17 19 9 10 1025.7 1025.8 0.0
30/12:00am 8.5 4.4 4.1 74 1.9 N 15 20 8 11 1026.4 1026.5 0.0
 
Date/Time
EST
Temp
°C
App
Temp
°C
Dew
Point
Rel
Hum
%
Delta-T
°C
Wind Press
QNH
hPa
Press
MSL
hPa
Rain
since 9 am
mm
Dir
 
Spd
km/h
Gust
km/h
Spd
kts
Gust
kts
29/11:30pm 8.2 4.0 4.0 75 1.8 N 15 17 8 9 1026.6 1026.7 0.0
29/11:00pm 8.7 4.2 4.3 74 1.9 N 17 20 9 11 1027.0 1027.1 0.0
29/10:30pm 9.0 4.1 4.2 72 2.1 N 19 24 10 13 1027.0 1027.1 0.0
29/10:00pm 9.5 5.4 4.5 71 2.2 N 15 22 8 12 1027.4 1027.5 0.0
29/09:30pm 10.0 5.5 4.4 68 2.5 N 17 22 9 12 1027.6 1027.7 0.0
29/09:00pm 10.0 5.5 4.4 68 2.5 N 17 26 9 14 1027.8 1027.9 0.0
29/08:30pm 10.3 5.5 4.7 68 2.5 N 19 22 10 12 1027.9 1028.0 0.0
29/08:00pm 10.3 5.3 4.5 67 2.6 N 20 26 11 14 1027.8 1027.9 0.0

Other Formats:

Comma delimited format used in spreadsheet applications
http://www.bom.gov.au/fwo/IDV60801/IDV60801.94870.axf

JavaScript Object Notation format (JSON) in row-major order
http://www.bom.gov.au/fwo/IDV60801/IDV60801.94870.json